sensor_id;sensor_type;location;lat;lon;timestamp;P1;durP1;ratioP1;P2;durP2;ratioP2
71238;SDS011;61342;51.442;7.370;2022-07-12T00:00:48;1.50;;;1.30;;
71238;SDS011;61342;51.442;7.370;2022-07-12T00:01:49;2.33;;;1.50;;
71238;SDS011;61342;51.442;7.370;2022-07-12T00:02:49;1.80;;;1.50;;
71238;SDS011;61342;51.442;7.370;2022-07-12T00:03:49;1.67;;;1.57;;
71238;SDS011;61342;51.442;7.370;2022-07-12T00:04:50;3.10;;;1.50;;
71238;SDS011;61342;51.442;7.370;2022-07-12T00:05:51;1.60;;;1.50;;
71238;SDS011;61342;51.442;7.370;2022-07-12T00:06:52;1.97;;;1.50;;
71238;SDS011;61342;51.442;7.370;2022-07-12T00:07:52;2.07;;;1.30;;
71238;SDS011;61342;51.442;7.370;2022-07-12T00:08:52;1.60;;;1.40;;
71238;SDS011;61342;51.442;7.370;2022-07-12T00:09:53;1.73;;;1.63;;
71238;SDS011;61342;51.442;7.370;2022-07-12T00:10:53;2.40;;;1.50;;
71238;SDS011;61342;51.442;7.370;2022-07-12T00:11:53;1.53;;;1.43;;
71238;SDS011;61342;51.442;7.370;2022-07-12T00:12:55;1.60;;;1.50;;
71238;SDS011;61342;51.442;7.370;2022-07-12T00:13:55;1.40;;;1.30;;
71238;SDS011;61342;51.442;7.370;2022-07-12T00:14:56;2.23;;;1.60;;
71238;SDS011;61342;51.442;7.370;2022-07-12T00:15:56;1.57;;;1.47;;
71238;SDS011;61342;51.442;7.370;2022-07-12T00:16:57;2.03;;;1.50;;
71238;SDS011;61342;51.442;7.370;2022-07-12T00:17:58;2.33;;;1.60;;
71238;SDS011;61342;51.442;7.370;2022-07-12T00:18:58;2.53;;;1.40;;
71238;SDS011;61342;51.442;7.370;2022-07-12T00:19:59;2.03;;;1.37;;
71238;SDS011;61342;51.442;7.370;2022-07-12T00:20:59;4.20;;;1.90;;
71238;SDS011;61342;51.442;7.370;2022-07-12T00:21:59;2.50;;;1.67;;
71238;SDS011;61342;51.442;7.370;2022-07-12T00:23:00;2.00;;;1.73;;
71238;SDS011;61342;51.442;7.370;2022-07-12T00:24:00;2.80;;;1.70;;
71238;SDS011;61342;51.442;7.370;2022-07-12T00:25:00;3.83;;;1.90;;
71238;SDS011;61342;51.442;7.370;2022-07-12T00:26:01;4.13;;;1.60;;
71238;SDS011;61342;51.442;7.370;2022-07-12T00:27:04;3.03;;;1.63;;
71238;SDS011;61342;51.442;7.370;2022-07-12T00:28:04;1.57;;;1.47;;
71238;SDS011;61342;51.442;7.370;2022-07-12T00:29:06;1.60;;;1.50;;
71238;SDS011;61342;51.442;7.370;2022-07-12T00:30:07;1.57;;;1.47;;
71238;SDS011;61342;51.442;7.370;2022-07-12T00:31:08;1.77;;;1.30;;
71238;SDS011;61342;51.442;7.370;2022-07-12T00:32:08;2.23;;;1.60;;
71238;SDS011;61342;51.442;7.370;2022-07-12T00:33:09;2.00;;;1.63;;
71238;SDS011;61342;51.442;7.370;2022-07-12T00:34:10;2.70;;;1.50;;
71238;SDS011;61342;51.442;7.370;2022-07-12T00:35:10;1.63;;;1.53;;
71238;SDS011;61342;51.442;7.370;2022-07-12T00:36:10;1.70;;;1.53;;
71238;SDS011;61342;51.442;7.370;2022-07-12T00:37:11;2.10;;;1.90;;
71238;SDS011;61342;51.442;7.370;2022-07-12T00:38:11;1.70;;;1.60;;
71238;SDS011;61342;51.442;7.370;2022-07-12T00:39:11;1.73;;;1.57;;
71238;SDS011;61342;51.442;7.370;2022-07-12T00:40:12;2.57;;;1.50;;
71238;SDS011;61342;51.442;7.370;2022-07-12T00:41:12;1.93;;;1.60;;
71238;SDS011;61342;51.442;7.370;2022-07-12T00:42:13;2.23;;;1.80;;
71238;SDS011;61342;51.442;7.370;2022-07-12T00:43:13;1.67;;;1.57;;
71238;SDS011;61342;51.442;7.370;2022-07-12T00:44:14;1.73;;;1.63;;
71238;SDS011;61342;51.442;7.370;2022-07-12T00:45:14;1.97;;;1.70;;
71238;SDS011;61342;51.442;7.370;2022-07-12T00:46:15;2.13;;;1.60;;
71238;SDS011;61342;51.442;7.370;2022-07-12T00:48:37;3.30;;;1.80;;
71238;SDS011;61342;51.442;7.370;2022-07-12T00:49:37;1.97;;;1.63;;
71238;SDS011;61342;51.442;7.370;2022-07-12T00:50:39;1.87;;;1.70;;
71238;SDS011;61342;51.442;7.370;2022-07-12T00:51:39;2.00;;;1.80;;
71238;SDS011;61342;51.442;7.370;2022-07-12T00:52:40;3.10;;;1.70;;
71238;SDS011;61342;51.442;7.370;2022-07-12T00:53:42;3.43;;;1.50;;
71238;SDS011;61342;51.442;7.370;2022-07-12T00:54:42;1.70;;;1.60;;
71238;SDS011;61342;51.442;7.370;2022-07-12T00:55:43;1.53;;;1.40;;
71238;SDS011;61342;51.442;7.370;2022-07-12T00:56:44;1.50;;;1.40;;
71238;SDS011;61342;51.442;7.370;2022-07-12T00:57:44;2.07;;;1.60;;
71238;SDS011;61342;51.442;7.370;2022-07-12T00:58:45;1.73;;;1.63;;
71238;SDS011;61342;51.442;7.370;2022-07-12T00:59:45;1.50;;;1.40;;
71238;SDS011;61342;51.442;7.370;2022-07-12T01:00:46;2.10;;;1.80;;
71238;SDS011;61342;51.442;7.370;2022-07-12T01:01:46;1.73;;;1.63;;
71238;SDS011;61342;51.442;7.370;2022-07-12T01:02:47;2.30;;;1.77;;
71238;SDS011;61342;51.442;7.370;2022-07-12T01:03:47;1.53;;;1.40;;
71238;SDS011;61342;51.442;7.370;2022-07-12T01:04:48;1.60;;;1.50;;
71238;SDS011;61342;51.442;7.370;2022-07-12T01:05:50;1.63;;;1.53;;
71238;SDS011;61342;51.442;7.370;2022-07-12T01:06:51;2.90;;;1.80;;
71238;SDS011;61342;51.442;7.370;2022-07-12T01:07:51;1.60;;;1.50;;
71238;SDS011;61342;51.442;7.370;2022-07-12T01:08:54;1.87;;;1.60;;
71238;SDS011;61342;51.442;7.370;2022-07-12T01:09:57;1.70;;;1.50;;
71238;SDS011;61342;51.442;7.370;2022-07-12T01:10:58;2.00;;;1.60;;
71238;SDS011;61342;51.442;7.370;2022-07-12T01:12:00;2.00;;;1.70;;
71238;SDS011;61342;51.442;7.370;2022-07-12T01:13:01;1.97;;;1.70;;
71238;SDS011;61342;51.442;7.370;2022-07-12T01:14:01;2.03;;;1.50;;
71238;SDS011;61342;51.442;7.370;2022-07-12T01:15:03;2.43;;;1.60;;
71238;SDS011;61342;51.442;7.370;2022-07-12T01:16:05;1.60;;;1.50;;
71238;SDS011;61342;51.442;7.370;2022-07-12T01:17:08;1.70;;;1.60;;
71238;SDS011;61342;51.442;7.370;2022-07-12T01:18:08;1.67;;;1.53;;
71238;SDS011;61342;51.442;7.370;2022-07-12T01:19:09;3.17;;;1.60;;
71238;SDS011;61342;51.442;7.370;2022-07-12T01:20:17;1.53;;;1.37;;
71238;SDS011;61342;51.442;7.370;2022-07-12T01:21:18;3.50;;;1.90;;
71238;SDS011;61342;51.442;7.370;2022-07-12T01:22:25;1.80;;;1.40;;
71238;SDS011;61342;51.442;7.370;2022-07-12T01:23:36;1.73;;;1.40;;
71238;SDS011;61342;51.442;7.370;2022-07-12T01:24:37;2.30;;;1.77;;
71238;SDS011;61342;51.442;7.370;2022-07-12T01:25:38;1.80;;;1.50;;
71238;SDS011;61342;51.442;7.370;2022-07-12T01:26:38;1.63;;;1.50;;
71238;SDS011;61342;51.442;7.370;2022-07-12T01:27:38;1.90;;;1.70;;
71238;SDS011;61342;51.442;7.370;2022-07-12T01:28:39;1.70;;;1.60;;
71238;SDS011;61342;51.442;7.370;2022-07-12T01:29:39;1.90;;;1.50;;
71238;SDS011;61342;51.442;7.370;2022-07-12T01:30:40;2.10;;;1.63;;
71238;SDS011;61342;51.442;7.370;2022-07-12T01:31:41;2.10;;;1.90;;
71238;SDS011;61342;51.442;7.370;2022-07-12T01:32:41;1.80;;;1.70;;
71238;SDS011;61342;51.442;7.370;2022-07-12T01:33:42;1.50;;;1.40;;
71238;SDS011;61342;51.442;7.370;2022-07-12T01:34:43;1.83;;;1.70;;
71238;SDS011;61342;51.442;7.370;2022-07-12T01:35:43;1.63;;;1.53;;
71238;SDS011;61342;51.442;7.370;2022-07-12T01:36:46;2.20;;;1.60;;
71238;SDS011;61342;51.442;7.370;2022-07-12T01:37:47;3.47;;;1.70;;
71238;SDS011;61342;51.442;7.370;2022-07-12T01:38:49;1.53;;;1.43;;
71238;SDS011;61342;51.442;7.370;2022-07-12T01:39:50;1.60;;;1.50;;
71238;SDS011;61342;51.442;7.370;2022-07-12T01:40:53;3.30;;;1.87;;
71238;SDS011;61342;51.442;7.370;2022-07-12T01:41:54;1.67;;;1.53;;
71238;SDS011;61342;51.442;7.370;2022-07-12T01:42:54;1.87;;;1.70;;
71238;SDS011;61342;51.442;7.370;2022-07-12T01:43:55;2.33;;;1.80;;
71238;SDS011;61342;51.442;7.370;2022-07-12T01:44:55;3.33;;;1.80;;
71238;SDS011;61342;51.442;7.370;2022-07-12T01:45:56;2.63;;;1.70;;
71238;SDS011;61342;51.442;7.370;2022-07-12T01:46:57;1.87;;;1.63;;
71238;SDS011;61342;51.442;7.370;2022-07-12T01:47:58;1.73;;;1.63;;
71238;SDS011;61342;51.442;7.370;2022-07-12T01:48:58;2.10;;;1.70;;
71238;SDS011;61342;51.442;7.370;2022-07-12T01:49:59;2.60;;;1.90;;
71238;SDS011;61342;51.442;7.370;2022-07-12T01:50:59;1.50;;;1.40;;
71238;SDS011;61342;51.442;7.370;2022-07-12T01:52:00;3.10;;;1.60;;
71238;SDS011;61342;51.442;7.370;2022-07-12T01:53:00;2.20;;;2.00;;
71238;SDS011;61342;51.442;7.370;2022-07-12T01:54:01;1.50;;;1.40;;
71238;SDS011;61342;51.442;7.370;2022-07-12T01:55:01;1.90;;;1.60;;
71238;SDS011;61342;51.442;7.370;2022-07-12T01:56:03;1.87;;;1.70;;
71238;SDS011;61342;51.442;7.370;2022-07-12T01:57:04;1.90;;;1.80;;
71238;SDS011;61342;51.442;7.370;2022-07-12T01:58:05;2.20;;;1.80;;
71238;SDS011;61342;51.442;7.370;2022-07-12T01:59:06;1.83;;;1.70;;
71238;SDS011;61342;51.442;7.370;2022-07-12T02:00:07;2.20;;;1.97;;
71238;SDS011;61342;51.442;7.370;2022-07-12T02:01:08;2.30;;;1.80;;
71238;SDS011;61342;51.442;7.370;2022-07-12T02:02:11;2.10;;;1.90;;
71238;SDS011;61342;51.442;7.370;2022-07-12T02:03:11;1.87;;;1.77;;
71238;SDS011;61342;51.442;7.370;2022-07-12T02:04:11;2.87;;;1.93;;
71238;SDS011;61342;51.442;7.370;2022-07-12T02:05:15;1.80;;;1.70;;
71238;SDS011;61342;51.442;7.370;2022-07-12T02:06:16;1.70;;;1.60;;
71238;SDS011;61342;51.442;7.370;2022-07-12T02:07:16;2.07;;;1.87;;
71238;SDS011;61342;51.442;7.370;2022-07-12T02:08:16;1.63;;;1.53;;
71238;SDS011;61342;51.442;7.370;2022-07-12T02:09:17;2.13;;;1.87;;
71238;SDS011;61342;51.442;7.370;2022-07-12T02:10:17;2.53;;;1.90;;
71238;SDS011;61342;51.442;7.370;2022-07-12T02:11:18;4.07;;;1.90;;
71238;SDS011;61342;51.442;7.370;2022-07-12T02:12:18;2.53;;;1.80;;
71238;SDS011;61342;51.442;7.370;2022-07-12T02:13:19;2.07;;;1.77;;
71238;SDS011;61342;51.442;7.370;2022-07-12T02:14:19;1.80;;;1.70;;
71238;SDS011;61342;51.442;7.370;2022-07-12T02:15:20;2.00;;;1.90;;
71238;SDS011;61342;51.442;7.370;2022-07-12T02:16:20;2.33;;;1.70;;
71238;SDS011;61342;51.442;7.370;2022-07-12T02:17:20;2.50;;;1.70;;
71238;SDS011;61342;51.442;7.370;2022-07-12T02:18:21;1.70;;;1.60;;
71238;SDS011;61342;51.442;7.370;2022-07-12T02:19:21;1.73;;;1.63;;
71238;SDS011;61342;51.442;7.370;2022-07-12T02:20:21;1.80;;;1.70;;
71238;SDS011;61342;51.442;7.370;2022-07-12T02:21:22;1.80;;;1.70;;
71238;SDS011;61342;51.442;7.370;2022-07-12T02:22:22;1.97;;;1.63;;
71238;SDS011;61342;51.442;7.370;2022-07-12T02:23:22;1.70;;;1.60;;
71238;SDS011;61342;51.442;7.370;2022-07-12T02:24:23;1.80;;;1.70;;
71238;SDS011;61342;51.442;7.370;2022-07-12T02:25:24;2.57;;;1.53;;
71238;SDS011;61342;51.442;7.370;2022-07-12T02:26:24;3.80;;;1.70;;
71238;SDS011;61342;51.442;7.370;2022-07-12T02:27:24;1.77;;;1.60;;
71238;SDS011;61342;51.442;7.370;2022-07-12T02:28:25;1.67;;;1.50;;
71238;SDS011;61342;51.442;7.370;2022-07-12T02:29:25;2.10;;;1.90;;
71238;SDS011;61342;51.442;7.370;2022-07-12T02:30:26;1.90;;;1.70;;
71238;SDS011;61342;51.442;7.370;2022-07-12T02:31:26;1.90;;;1.80;;
71238;SDS011;61342;51.442;7.370;2022-07-12T02:32:27;1.70;;;1.60;;
71238;SDS011;61342;51.442;7.370;2022-07-12T02:33:27;1.70;;;1.60;;
71238;SDS011;61342;51.442;7.370;2022-07-12T02:34:28;2.40;;;1.50;;
71238;SDS011;61342;51.442;7.370;2022-07-12T02:35:28;3.80;;;2.03;;
71238;SDS011;61342;51.442;7.370;2022-07-12T02:36:29;3.23;;;1.90;;
71238;SDS011;61342;51.442;7.370;2022-07-12T02:37:29;1.80;;;1.63;;
71238;SDS011;61342;51.442;7.370;2022-07-12T02:38:29;1.67;;;1.57;;
71238;SDS011;61342;51.442;7.370;2022-07-12T02:39:30;2.27;;;1.70;;
71238;SDS011;61342;51.442;7.370;2022-07-12T02:40:30;3.93;;;1.80;;
71238;SDS011;61342;51.442;7.370;2022-07-12T02:41:49;2.50;;;1.57;;
71238;SDS011;61342;51.442;7.370;2022-07-12T02:42:50;2.80;;;1.70;;
71238;SDS011;61342;51.442;7.370;2022-07-12T02:43:50;2.90;;;1.70;;
71238;SDS011;61342;51.442;7.370;2022-07-12T02:44:50;1.70;;;1.50;;
71238;SDS011;61342;51.442;7.370;2022-07-12T02:45:51;1.93;;;1.63;;
71238;SDS011;61342;51.442;7.370;2022-07-12T02:46:53;2.43;;;1.90;;
71238;SDS011;61342;51.442;7.370;2022-07-12T02:47:53;1.77;;;1.67;;
71238;SDS011;61342;51.442;7.370;2022-07-12T02:48:53;1.57;;;1.40;;
71238;SDS011;61342;51.442;7.370;2022-07-12T02:49:54;2.50;;;1.50;;
71238;SDS011;61342;51.442;7.370;2022-07-12T02:50:54;1.63;;;1.53;;
71238;SDS011;61342;51.442;7.370;2022-07-12T02:51:54;4.50;;;1.90;;
71238;SDS011;61342;51.442;7.370;2022-07-12T02:52:55;3.57;;;1.97;;
71238;SDS011;61342;51.442;7.370;2022-07-12T02:53:55;2.03;;;1.47;;
71238;SDS011;61342;51.442;7.370;2022-07-12T02:54:55;1.60;;;1.50;;
71238;SDS011;61342;51.442;7.370;2022-07-12T02:55:56;4.60;;;1.77;;
71238;SDS011;61342;51.442;7.370;2022-07-12T02:56:56;2.77;;;1.77;;
71238;SDS011;61342;51.442;7.370;2022-07-12T02:57:56;1.60;;;1.50;;
71238;SDS011;61342;51.442;7.370;2022-07-12T02:58:57;3.37;;;1.60;;
71238;SDS011;61342;51.442;7.370;2022-07-12T02:59:57;3.23;;;2.07;;
71238;SDS011;61342;51.442;7.370;2022-07-12T03:00:57;2.57;;;2.23;;
71238;SDS011;61342;51.442;7.370;2022-07-12T03:01:58;1.80;;;1.70;;
71238;SDS011;61342;51.442;7.370;2022-07-12T03:02:58;2.20;;;2.00;;
71238;SDS011;61342;51.442;7.370;2022-07-12T03:03:59;2.73;;;1.90;;
71238;SDS011;61342;51.442;7.370;2022-07-12T03:04:59;2.87;;;2.10;;
71238;SDS011;61342;51.442;7.370;2022-07-12T03:06:00;2.53;;;1.93;;
71238;SDS011;61342;51.442;7.370;2022-07-12T03:07:00;2.57;;;1.80;;
71238;SDS011;61342;51.442;7.370;2022-07-12T03:08:01;3.93;;;1.90;;
71238;SDS011;61342;51.442;7.370;2022-07-12T03:09:03;2.93;;;1.80;;
71238;SDS011;61342;51.442;7.370;2022-07-12T03:10:03;2.07;;;1.90;;
71238;SDS011;61342;51.442;7.370;2022-07-12T03:11:04;2.73;;;1.60;;
71238;SDS011;61342;51.442;7.370;2022-07-12T03:12:05;3.10;;;1.80;;
71238;SDS011;61342;51.442;7.370;2022-07-12T03:13:07;2.53;;;2.00;;
71238;SDS011;61342;51.442;7.370;2022-07-12T03:14:07;2.47;;;1.83;;
71238;SDS011;61342;51.442;7.370;2022-07-12T03:15:08;3.73;;;1.63;;
71238;SDS011;61342;51.442;7.370;2022-07-12T03:16:08;2.10;;;1.90;;
71238;SDS011;61342;51.442;7.370;2022-07-12T03:17:09;2.73;;;1.90;;
71238;SDS011;61342;51.442;7.370;2022-07-12T03:18:09;3.20;;;2.10;;
71238;SDS011;61342;51.442;7.370;2022-07-12T03:19:11;1.90;;;1.70;;
71238;SDS011;61342;51.442;7.370;2022-07-12T03:20:11;2.83;;;2.10;;
71238;SDS011;61342;51.442;7.370;2022-07-12T03:21:14;2.47;;;1.97;;
71238;SDS011;61342;51.442;7.370;2022-07-12T03:22:16;2.50;;;1.93;;
71238;SDS011;61342;51.442;7.370;2022-07-12T03:23:16;2.67;;;1.90;;
71238;SDS011;61342;51.442;7.370;2022-07-12T03:24:16;2.23;;;2.00;;
71238;SDS011;61342;51.442;7.370;2022-07-12T03:25:17;2.40;;;2.20;;
71238;SDS011;61342;51.442;7.370;2022-07-12T03:26:18;2.40;;;2.20;;
71238;SDS011;61342;51.442;7.370;2022-07-12T03:27:18;2.63;;;2.10;;
71238;SDS011;61342;51.442;7.370;2022-07-12T03:28:19;2.97;;;2.10;;
71238;SDS011;61342;51.442;7.370;2022-07-12T03:29:19;2.40;;;2.20;;
71238;SDS011;61342;51.442;7.370;2022-07-12T03:30:20;3.03;;;2.43;;
71238;SDS011;61342;51.442;7.370;2022-07-12T03:31:21;2.67;;;2.10;;
71238;SDS011;61342;51.442;7.370;2022-07-12T03:32:21;2.27;;;2.07;;
71238;SDS011;61342;51.442;7.370;2022-07-12T03:33:21;2.77;;;2.50;;
71238;SDS011;61342;51.442;7.370;2022-07-12T03:34:22;2.43;;;2.20;;
71238;SDS011;61342;51.442;7.370;2022-07-12T03:35:22;3.27;;;2.17;;
71238;SDS011;61342;51.442;7.370;2022-07-12T03:36:23;2.20;;;2.03;;
71238;SDS011;61342;51.442;7.370;2022-07-12T03:37:24;2.67;;;2.20;;
71238;SDS011;61342;51.442;7.370;2022-07-12T03:38:24;2.40;;;2.20;;
71238;SDS011;61342;51.442;7.370;2022-07-12T03:39:25;2.37;;;2.17;;
71238;SDS011;61342;51.442;7.370;2022-07-12T03:40:25;2.40;;;2.20;;
71238;SDS011;61342;51.442;7.370;2022-07-12T03:41:26;2.30;;;2.10;;
71238;SDS011;61342;51.442;7.370;2022-07-12T03:42:26;2.40;;;2.17;;
71238;SDS011;61342;51.442;7.370;2022-07-12T03:43:26;2.30;;;2.10;;
71238;SDS011;61342;51.442;7.370;2022-07-12T03:44:27;2.50;;;2.30;;
71238;SDS011;61342;51.442;7.370;2022-07-12T03:45:30;2.97;;;2.40;;
71238;SDS011;61342;51.442;7.370;2022-07-12T03:46:30;2.37;;;1.97;;
71238;SDS011;61342;51.442;7.370;2022-07-12T03:47:32;3.10;;;2.40;;
71238;SDS011;61342;51.442;7.370;2022-07-12T03:48:35;3.00;;;2.27;;
71238;SDS011;61342;51.442;7.370;2022-07-12T03:54:41;2.57;;;2.37;;
71238;SDS011;61342;51.442;7.370;2022-07-12T03:55:41;2.60;;;2.40;;
71238;SDS011;61342;51.442;7.370;2022-07-12T03:56:44;2.97;;;2.37;;
71238;SDS011;61342;51.442;7.370;2022-07-12T03:58:04;2.60;;;2.40;;
71238;SDS011;61342;51.442;7.370;2022-07-12T03:59:09;4.03;;;2.40;;
71238;SDS011;61342;51.442;7.370;2022-07-12T04:00:18;4.10;;;2.60;;
71238;SDS011;61342;51.442;7.370;2022-07-12T04:01:19;4.70;;;2.67;;
71238;SDS011;61342;51.442;7.370;2022-07-12T04:02:19;3.17;;;2.30;;
71238;SDS011;61342;51.442;7.370;2022-07-12T04:03:22;2.80;;;2.23;;
71238;SDS011;61342;51.442;7.370;2022-07-12T04:04:25;3.17;;;2.13;;
71238;SDS011;61342;51.442;7.370;2022-07-12T04:05:26;2.30;;;2.10;;
71238;SDS011;61342;51.442;7.370;2022-07-12T04:06:26;3.67;;;2.57;;
71238;SDS011;61342;51.442;7.370;2022-07-12T04:07:40;3.07;;;2.30;;
71238;SDS011;61342;51.442;7.370;2022-07-12T04:09:01;2.20;;;2.00;;
71238;SDS011;61342;51.442;7.370;2022-07-12T04:10:02;2.30;;;2.10;;
71238;SDS011;61342;51.442;7.370;2022-07-12T04:11:05;2.70;;;2.50;;
71238;SDS011;61342;51.442;7.370;2022-07-12T04:12:06;2.57;;;2.30;;
71238;SDS011;61342;51.442;7.370;2022-07-12T04:13:07;4.57;;;4.17;;
71238;SDS011;61342;51.442;7.370;2022-07-12T04:14:07;53.80;;;36.10;;
71238;SDS011;61342;51.442;7.370;2022-07-12T04:15:08;67.37;;;42.33;;
71238;SDS011;61342;51.442;7.370;2022-07-12T04:16:08;63.53;;;38.67;;
71238;SDS011;61342;51.442;7.370;2022-07-12T04:17:09;24.40;;;15.53;;
71238;SDS011;61342;51.442;7.370;2022-07-12T04:18:09;16.90;;;10.80;;
71238;SDS011;61342;51.442;7.370;2022-07-12T04:19:12;10.40;;;7.13;;
71238;SDS011;61342;51.442;7.370;2022-07-12T04:20:16;8.33;;;5.77;;
71238;SDS011;61342;51.442;7.370;2022-07-12T04:21:16;6.87;;;4.70;;
71238;SDS011;61342;51.442;7.370;2022-07-12T04:22:16;4.70;;;3.67;;
71238;SDS011;61342;51.442;7.370;2022-07-12T04:23:17;3.80;;;3.40;;
71238;SDS011;61342;51.442;7.370;2022-07-12T04:24:17;3.77;;;3.33;;
71238;SDS011;61342;51.442;7.370;2022-07-12T04:25:20;4.70;;;2.90;;
71238;SDS011;61342;51.442;7.370;2022-07-12T04:26:21;4.27;;;2.83;;
71238;SDS011;61342;51.442;7.370;2022-07-12T04:27:21;4.60;;;3.10;;
71238;SDS011;61342;51.442;7.370;2022-07-12T04:28:21;3.17;;;2.83;;
71238;SDS011;61342;51.442;7.370;2022-07-12T04:29:22;4.63;;;2.93;;
71238;SDS011;61342;51.442;7.370;2022-07-12T04:30:22;3.07;;;2.70;;
71238;SDS011;61342;51.442;7.370;2022-07-12T04:31:24;3.47;;;2.70;;
71238;SDS011;61342;51.442;7.370;2022-07-12T04:32:24;3.03;;;2.73;;
71238;SDS011;61342;51.442;7.370;2022-07-12T04:33:28;5.37;;;2.20;;
71238;SDS011;61342;51.442;7.370;2022-07-12T04:34:28;2.90;;;2.60;;
71238;SDS011;61342;51.442;7.370;2022-07-12T04:35:29;4.23;;;2.40;;
71238;SDS011;61342;51.442;7.370;2022-07-12T04:36:29;3.00;;;2.43;;
71238;SDS011;61342;51.442;7.370;2022-07-12T04:37:30;2.80;;;2.50;;
71238;SDS011;61342;51.442;7.370;2022-07-12T04:38:32;2.80;;;2.60;;
71238;SDS011;61342;51.442;7.370;2022-07-12T04:39:33;2.57;;;2.13;;
71238;SDS011;61342;51.442;7.370;2022-07-12T04:40:35;2.57;;;2.37;;
71238;SDS011;61342;51.442;7.370;2022-07-12T04:41:36;3.20;;;2.13;;
71238;SDS011;61342;51.442;7.370;2022-07-12T04:42:36;2.50;;;2.30;;
71238;SDS011;61342;51.442;7.370;2022-07-12T04:43:37;2.37;;;2.13;;
71238;SDS011;61342;51.442;7.370;2022-07-12T04:44:37;2.50;;;2.20;;
71238;SDS011;61342;51.442;7.370;2022-07-12T04:45:43;3.23;;;2.60;;
71238;SDS011;61342;51.442;7.370;2022-07-12T04:46:44;14.50;;;11.63;;
71238;SDS011;61342;51.442;7.370;2022-07-12T04:47:44;140.13;;;92.87;;
71238;SDS011;61342;51.442;7.370;2022-07-12T04:48:53;191.57;;;116.27;;
71238;SDS011;61342;51.442;7.370;2022-07-12T04:50:02;150.20;;;91.13;;
71238;SDS011;61342;51.442;7.370;2022-07-12T04:51:25;20.07;;;14.07;;
71238;SDS011;61342;51.442;7.370;2022-07-12T04:52:27;16.03;;;10.33;;
71238;SDS011;61342;51.442;7.370;2022-07-12T04:53:27;10.90;;;7.70;;
71238;SDS011;61342;51.442;7.370;2022-07-12T04:54:28;9.57;;;6.87;;
71238;SDS011;61342;51.442;7.370;2022-07-12T04:55:31;5.47;;;4.67;;
71238;SDS011;61342;51.442;7.370;2022-07-12T04:56:32;4.47;;;3.83;;
71238;SDS011;61342;51.442;7.370;2022-07-12T04:57:35;4.50;;;3.30;;
71238;SDS011;61342;51.442;7.370;2022-07-12T04:58:35;3.47;;;3.17;;
71238;SDS011;61342;51.442;7.370;2022-07-12T04:59:36;6.73;;;3.53;;
71238;SDS011;61342;51.442;7.370;2022-07-12T05:00:36;4.47;;;2.80;;
71238;SDS011;61342;51.442;7.370;2022-07-12T05:01:37;5.13;;;3.00;;
71238;SDS011;61342;51.442;7.370;2022-07-12T05:02:37;4.27;;;3.00;;
71238;SDS011;61342;51.442;7.370;2022-07-12T05:03:41;3.77;;;3.00;;
71238;SDS011;61342;51.442;7.370;2022-07-12T05:04:41;4.77;;;2.87;;
71238;SDS011;61342;51.442;7.370;2022-07-12T05:05:42;3.80;;;2.70;;
71238;SDS011;61342;51.442;7.370;2022-07-12T05:06:42;2.63;;;2.43;;
71238;SDS011;61342;51.442;7.370;2022-07-12T05:07:43;2.93;;;2.40;;
71238;SDS011;61342;51.442;7.370;2022-07-12T05:08:43;2.93;;;2.70;;
71238;SDS011;61342;51.442;7.370;2022-07-12T05:09:44;2.60;;;2.40;;
71238;SDS011;61342;51.442;7.370;2022-07-12T05:10:44;3.07;;;2.53;;
71238;SDS011;61342;51.442;7.370;2022-07-12T05:11:44;6.87;;;2.53;;
71238;SDS011;61342;51.442;7.370;2022-07-12T05:12:45;2.83;;;2.43;;
71238;SDS011;61342;51.442;7.370;2022-07-12T05:13:46;2.67;;;2.47;;
71238;SDS011;61342;51.442;7.370;2022-07-12T05:14:46;2.80;;;2.60;;
71238;SDS011;61342;51.442;7.370;2022-07-12T05:15:47;2.73;;;2.33;;
71238;SDS011;61342;51.442;7.370;2022-07-12T05:16:47;3.60;;;2.63;;
71238;SDS011;61342;51.442;7.370;2022-07-12T05:17:48;2.83;;;2.53;;
71238;SDS011;61342;51.442;7.370;2022-07-12T05:18:48;3.17;;;2.60;;
71238;SDS011;61342;51.442;7.370;2022-07-12T05:19:48;3.57;;;2.80;;
71238;SDS011;61342;51.442;7.370;2022-07-12T05:20:49;2.87;;;2.37;;
71238;SDS011;61342;51.442;7.370;2022-07-12T05:21:49;2.70;;;2.50;;
71238;SDS011;61342;51.442;7.370;2022-07-12T05:22:50;2.40;;;2.20;;
71238;SDS011;61342;51.442;7.370;2022-07-12T05:23:50;3.53;;;2.80;;
71238;SDS011;61342;51.442;7.370;2022-07-12T05:24:51;20.53;;;14.53;;
71238;SDS011;61342;51.442;7.370;2022-07-12T05:25:52;39.57;;;27.27;;
71238;SDS011;61342;51.442;7.370;2022-07-12T05:26:52;54.07;;;34.27;;
71238;SDS011;61342;51.442;7.370;2022-07-12T05:27:53;23.73;;;17.47;;
71238;SDS011;61342;51.442;7.370;2022-07-12T05:28:53;20.23;;;14.07;;
71238;SDS011;61342;51.442;7.370;2022-07-12T05:29:54;15.33;;;10.63;;
71238;SDS011;61342;51.442;7.370;2022-07-12T05:30:54;10.00;;;7.83;;
71238;SDS011;61342;51.442;7.370;2022-07-12T05:31:55;10.87;;;7.63;;
71238;SDS011;61342;51.442;7.370;2022-07-12T05:32:57;7.53;;;5.20;;
71238;SDS011;61342;51.442;7.370;2022-07-12T05:33:57;5.80;;;4.23;;
71238;SDS011;61342;51.442;7.370;2022-07-12T05:34:57;6.70;;;4.37;;
71238;SDS011;61342;51.442;7.370;2022-07-12T05:35:58;5.13;;;4.53;;
71238;SDS011;61342;51.442;7.370;2022-07-12T05:36:58;6.20;;;3.60;;
71238;SDS011;61342;51.442;7.370;2022-07-12T05:37:58;4.00;;;3.60;;
71238;SDS011;61342;51.442;7.370;2022-07-12T05:39:00;4.00;;;2.90;;
71238;SDS011;61342;51.442;7.370;2022-07-12T05:40:00;3.70;;;2.80;;
71238;SDS011;61342;51.442;7.370;2022-07-12T05:41:00;3.37;;;3.07;;
71238;SDS011;61342;51.442;7.370;2022-07-12T05:42:01;3.63;;;2.83;;
71238;SDS011;61342;51.442;7.370;2022-07-12T05:43:01;3.70;;;3.40;;
71238;SDS011;61342;51.442;7.370;2022-07-12T05:44:02;3.10;;;2.80;;
71238;SDS011;61342;51.442;7.370;2022-07-12T05:45:03;5.33;;;3.10;;
71238;SDS011;61342;51.442;7.370;2022-07-12T05:46:04;6.87;;;3.10;;
71238;SDS011;61342;51.442;7.370;2022-07-12T05:47:05;2.60;;;2.40;;
71238;SDS011;61342;51.442;7.370;2022-07-12T05:48:05;3.53;;;2.70;;
71238;SDS011;61342;51.442;7.370;2022-07-12T05:49:06;3.03;;;2.77;;
71238;SDS011;61342;51.442;7.370;2022-07-12T05:50:07;5.93;;;2.70;;
71238;SDS011;61342;51.442;7.370;2022-07-12T05:51:08;2.97;;;2.40;;
71238;SDS011;61342;51.442;7.370;2022-07-12T05:52:27;3.40;;;2.77;;
71238;SDS011;61342;51.442;7.370;2022-07-12T05:53:46;2.73;;;2.40;;
71238;SDS011;61342;51.442;7.370;2022-07-12T05:54:46;3.93;;;3.00;;
71238;SDS011;61342;51.442;7.370;2022-07-12T05:55:50;3.53;;;2.80;;
71238;SDS011;61342;51.442;7.370;2022-07-12T05:56:52;4.13;;;2.70;;
71238;SDS011;61342;51.442;7.370;2022-07-12T05:57:53;3.33;;;2.40;;
71238;SDS011;61342;51.442;7.370;2022-07-12T05:58:53;3.00;;;2.53;;
71238;SDS011;61342;51.442;7.370;2022-07-12T05:59:54;3.20;;;2.70;;
71238;SDS011;61342;51.442;7.370;2022-07-12T06:00:54;4.47;;;2.90;;
71238;SDS011;61342;51.442;7.370;2022-07-12T06:01:54;3.03;;;2.83;;
71238;SDS011;61342;51.442;7.370;2022-07-12T06:02:55;3.27;;;2.73;;
71238;SDS011;61342;51.442;7.370;2022-07-12T06:03:55;3.83;;;3.00;;
71238;SDS011;61342;51.442;7.370;2022-07-12T06:04:55;3.90;;;2.93;;
71238;SDS011;61342;51.442;7.370;2022-07-12T06:05:56;6.70;;;3.23;;
71238;SDS011;61342;51.442;7.370;2022-07-12T06:06:56;3.73;;;2.90;;
71238;SDS011;61342;51.442;7.370;2022-07-12T06:07:56;3.20;;;2.90;;
71238;SDS011;61342;51.442;7.370;2022-07-12T06:11:38;121.90;;;80.03;;
71238;SDS011;61342;51.442;7.370;2022-07-12T06:12:41;53.43;;;35.93;;
71238;SDS011;61342;51.442;7.370;2022-07-12T06:13:41;39.70;;;25.63;;
71238;SDS011;61342;51.442;7.370;2022-07-12T06:14:41;35.20;;;24.90;;
71238;SDS011;61342;51.442;7.370;2022-07-12T06:15:44;27.60;;;19.47;;
71238;SDS011;61342;51.442;7.370;2022-07-12T06:17:06;11.60;;;8.03;;
71238;SDS011;61342;51.442;7.370;2022-07-12T06:18:09;9.93;;;6.60;;